Time;durP1;ratioP1;P1;durP2;ratioP2;P2;SDS_P1;SDS_P2;PMS_P1;PMS_P2;Temp;Humidity;BMP_temperature;BMP_pressure;BME280_temperature;BME280_humidity;BME280_pressure;Samples;Min_cycle;Max_cycle;Signal;HPM_P1;HPM_P2
2022/12/25 00:00:45;;;;;;;55.35;17.20;;;5.40;99.90;;;;;;4999820;28;20052;-85
2022/12/25 00:03:21;;;;;;;53.40;19.02;;;5.30;99.90;;;;;;4997091;28;20072;-87
2022/12/25 00:05:52;;;;;;;47.33;15.65;;;5.40;99.90;;;;;;5014457;28;20054;-86
2022/12/25 00:08:21;;;;;;;51.58;17.70;;;5.40;99.90;;;;;;4994318;28;20081;-85
2022/12/25 00:11:10;;;;;;;48.95;17.20;;;5.40;99.90;;;;;;5003850;28;20147;-86
2022/12/25 00:13:39;;;;;;;55.15;17.42;;;5.50;99.90;;;;;;4972941;28;20049;-86
2022/12/25 00:16:10;;;;;;;48.85;17.48;;;5.30;99.90;;;;;;4999846;28;20513;-87
2022/12/25 00:18:38;;;;;;;49.00;16.35;;;5.40;99.90;;;;;;5002338;28;20054;-86
2022/12/25 00:21:05;;;;;;;57.90;17.38;;;5.30;99.90;;;;;;4980927;28;20077;-85
2022/12/25 00:23:33;;;;;;;50.58;17.70;;;5.30;99.90;;;;;;4997010;28;20124;-85
2022/12/25 00:26:28;;;;;;;47.90;17.02;;;5.40;99.90;;;;;;5016313;28;20052;-86
2022/12/25 00:29:03;;;;;;;51.15;16.65;;;5.50;99.90;;;;;;5003447;28;20148;-85
2022/12/25 00:31:37;;;;;;;48.58;16.67;;;5.50;99.90;;;;;;5003186;28;20045;-86
2022/12/25 00:34:08;;;;;;;52.58;17.42;;;5.50;99.90;;;;;;5002588;28;20188;-85
2022/12/25 00:36:34;;;;;;;61.97;18.70;;;5.50;99.90;;;;;;5002714;28;20046;-85
2022/12/25 00:39:09;;;;;;;57.70;19.35;;;5.60;99.90;;;;;;5002485;28;20053;-87
2022/12/25 00:44:35;;;;;;;47.50;17.10;;;5.50;99.90;;;;;;5002556;28;20049;-86
2022/12/25 00:47:06;;;;;;;47.58;18.02;;;5.50;99.90;;;;;;4981654;28;20494;-88
2022/12/25 00:49:34;;;;;;;55.80;17.95;;;5.70;99.90;;;;;;5000043;28;20136;-86
2022/12/25 00:52:00;;;;;;;53.83;18.00;;;5.60;99.90;;;;;;4996080;28;20054;-90
2022/12/25 00:54:28;;;;;;;44.72;17.50;;;5.60;99.90;;;;;;5002176;28;20087;-85
2022/12/25 00:59:49;;;;;;;49.80;17.25;;;5.70;99.90;;;;;;5010292;28;20139;-87
2022/12/25 01:02:26;;;;;;;40.60;16.77;;;6.40;99.90;;;;;;5005540;28;20136;-85
2022/12/25 01:04:59;;;;;;;57.85;17.73;;;5.60;99.90;;;;;;5000510;28;20877;-88
2022/12/25 01:07:36;;;;;;;50.83;17.88;;;5.60;99.90;;;;;;4982772;28;20642;-86
2022/12/25 01:12:53;;;;;;;51.75;18.52;;;5.80;99.90;;;;;;5012377;28;20509;-85
2022/12/25 01:15:21;;;;;;;48.70;18.40;;;5.90;99.90;;;;;;4981352;28;20053;-86
2022/12/25 01:17:50;;;;;;;49.72;18.38;;;6.20;99.90;;;;;;4996146;28;20042;-86
2022/12/25 01:20:19;;;;;;;54.92;19.70;;;6.00;99.90;;;;;;4995327;28;20052;-86
2022/12/25 01:22:57;;;;;;;53.60;19.60;;;4.90;99.90;;;;;;4996929;28;20050;-84
2022/12/25 01:28:14;;;;;;;66.80;21.35;;;6.00;99.90;;;;;;4996392;28;20041;-86
2022/12/25 01:30:52;;;;;;;58.58;21.20;;;5.90;99.90;;;;;;4997781;28;20126;-86
2022/12/25 01:33:23;;;;;;;63.50;21.73;;;6.20;99.90;;;;;;4999119;28;20133;-85
2022/12/25 01:35:57;;;;;;;64.20;21.83;;;6.10;99.90;;;;;;4996650;28;20050;-85
2022/12/25 01:38:25;;;;;;;64.25;21.73;;;6.30;99.90;;;;;;4981801;28;20053;-85
2022/12/25 01:40:58;;;;;;;82.95;23.58;;;6.10;99.90;;;;;;5008304;28;20048;-85
2022/12/25 01:43:35;;;;;;;68.95;22.70;;;6.20;99.90;;;;;;4999595;28;20052;-86
2022/12/25 01:46:03;;;;;;;75.22;24.05;;;5.10;99.90;;;;;;4994015;28;20053;-85
2022/12/25 01:48:37;;;;;;;57.53;22.17;;;6.20;99.90;;;;;;4979340;28;20045;-88
2022/12/25 01:51:22;;;;;;;68.70;23.25;;;6.30;99.90;;;;;;4995088;28;20096;-86
2022/12/25 01:54:11;;;;;;;63.47;22.30;;;6.70;99.90;;;;;;4996988;28;20034;-86
2022/12/25 01:56:39;;;;;;;59.85;22.77;;;6.50;99.90;;;;;;4998399;28;20046;-86
2022/12/25 01:59:10;;;;;;;63.08;21.63;;;6.30;99.90;;;;;;5010931;28;20509;-86
2022/12/25 02:01:44;;;;;;;58.63;19.70;;;;;;;;;;4992030;28;20038;-85
2022/12/25 02:04:42;;;;;;;56.65;21.30;;;6.40;99.90;;;;;;5009925;28;20080;-89
2022/12/25 02:07:22;;;;;;;60.35;22.38;;;5.20;99.90;;;;;;4994477;28;20664;-86
2022/12/25 02:10:05;;;;;;;66.47;22.05;;;6.30;99.90;;;;;;4998292;28;20137;-86
2022/12/25 02:12:45;;;;;;;58.88;20.67;;;6.40;99.90;;;;;;4986882;28;20054;-88
2022/12/25 02:15:33;;;;;;;58.38;20.67;;;6.60;99.90;;;;;;5013329;28;20053;-86
2022/12/25 02:18:08;;;;;;;52.13;20.77;;;6.40;99.90;;;;;;4993594;28;20042;-86
2022/12/25 02:21:08;;;;;;;56.22;20.70;;;6.30;99.90;;;;;;4997577;28;20045;-85
2022/12/25 02:24:03;;;;;;;56.42;19.02;;;6.40;99.90;;;;;;5017661;28;20141;-87
2022/12/25 02:26:52;;;;;;;49.45;19.52;;;6.40;99.90;;;;;;5000110;28;20135;-86
2022/12/25 02:29:42;;;;;;;57.67;21.20;;;6.40;99.90;;;;;;5000139;28;20049;-87
2022/12/25 02:32:22;;;;;;;60.38;20.48;;;6.60;99.90;;;;;;4984311;28;20124;-86
2022/12/25 02:35:16;;;;;;;52.65;20.15;;;6.60;99.90;;;;;;4995762;28;20049;-86
2022/12/25 02:38:00;;;;;;;53.88;19.38;;;6.60;99.90;;;;;;5012047;28;20081;-86
2022/12/25 02:40:42;;;;;;;56.13;19.95;;;6.80;99.90;;;;;;4997845;28;20088;-86
2022/12/25 03:06:45;;;;;;;60.22;24.63;;;6.90;99.90;;;;;;5011110;28;20046;-86
2022/12/25 03:12:21;;;;;;;67.28;24.80;;;6.70;99.90;;;;;;5011402;28;20045;-86
2022/12/25 03:17:56;;;;;;;51.03;22.23;;;7.60;99.90;;;;;;5013103;28;20447;-88
2022/12/25 03:26:58;;;;;;;58.05;23.10;;;7.10;99.90;;;;;;4965016;28;20050;-87
2022/12/25 03:32:47;;;;;;;57.08;22.48;;;7.10;99.90;;;;;;5011248;28;20058;-86
2022/12/25 03:35:45;;;;;;;57.20;23.27;;;7.10;99.90;;;;;;5011962;28;20818;-89
2022/12/25 03:39:07;;;;;;;57.72;23.20;;;7.30;99.90;;;;;;5013670;28;20274;-86
2022/12/25 04:38:32;;;;;;;73.78;26.08;;;7.30;99.90;;;;;;5013301;28;20049;-85
2022/12/25 04:41:04;;;;;;;70.88;26.25;;;6.40;99.90;;;;;;5000556;28;20042;-87
2022/12/25 04:43:40;;;;;;;;;;;;;;;;;;;;;
2022/12/25 04:46:11;;;;;;;72.97;26.27;;;7.20;99.90;;;;;;5014677;28;20107;-85
2022/12/25 04:48:42;;;;;;;76.60;27.15;;;7.30;99.90;;;;;;4996241;28;20493;-86
2022/12/25 04:51:12;;;;;;;76.15;26.48;;;7.30;99.90;;;;;;4983314;28;20077;-86
2022/12/25 04:53:56;;;;;;;67.60;26.10;;;7.30;99.90;;;;;;4999944;28;20053;-87
2022/12/25 04:56:22;;;;;;;83.57;27.60;;;7.30;99.90;;;;;;5017561;28;20132;-85
2022/12/25 04:58:51;;;;;;;76.97;26.45;;;7.40;99.90;;;;;;4993355;28;20045;-86
2022/12/25 05:01:29;;;;;;;;;;;;;;;;;;;;;
2022/12/25 05:04:03;;;;;;;70.75;26.48;;;7.40;99.90;;;;;;5001960;28;20131;-86
2022/12/25 05:06:32;;;;;;;69.68;26.20;;;6.10;99.90;;;;;;4998097;28;20037;-88
2022/12/25 05:09:07;;;;;;;69.18;27.20;;;7.40;99.90;;;;;;4997553;28;20050;-85
2022/12/25 05:11:59;;;;;;;62.25;25.02;;;7.50;99.90;;;;;;5011436;28;20038;-86
2022/12/25 05:14:35;;;;;;;61.97;24.02;;;7.40;99.90;;;;;;4971364;28;20046;-85
2022/12/25 05:17:03;;;;;;;69.70;25.25;;;7.50;99.90;;;;;;4975521;28;20203;-85
2022/12/25 05:19:35;;;;;;;70.38;26.60;;;7.40;99.90;;;;;;4999209;28;20041;-87
2022/12/25 05:22:11;;;;;;;69.20;25.02;;;7.60;99.90;;;;;;4993501;28;20121;-85
2022/12/25 05:24:37;;;;;;;65.20;24.70;;;;;;;;;;4995525;28;20518;-88
2022/12/25 05:27:05;;;;;;;65.88;24.27;;;7.50;99.90;;;;;;5002766;28;20050;-85
2022/12/25 05:29:42;;;;;;;66.85;23.95;;;9.00;99.90;;;;;;4997617;28;20112;-86
2022/12/25 05:32:11;;;;;;;62.45;24.15;;;7.60;99.90;;;;;;4995367;28;20899;-85
2022/12/25 05:34:44;;;;;;;69.45;25.50;;;7.50;99.90;;;;;;4999233;28;20081;-87
2022/12/25 05:37:13;;;;;;;61.50;25.00;;;7.50;99.90;;;;;;4997872;28;20049;-85
2022/12/25 05:39:46;;;;;;;64.00;25.33;;;7.50;99.90;;;;;;4982244;28;20922;-87
2022/12/25 05:42:27;;;;;;;62.70;23.70;;;7.50;99.90;;;;;;4978348;28;20156;-85
2022/12/25 05:45:03;;;;;;;57.85;23.23;;;7.40;99.90;;;;;;4992332;28;20509;-87
2022/12/25 05:50:28;;;;;;;;;;;;;;;;;;;;;
2022/12/25 05:53:02;;;;;;;55.65;22.77;;;7.30;99.90;;;;;;4994093;28;20049;-86
2022/12/25 05:55:47;;;;;;;;;;;;;;;;;;;;;
2022/12/25 05:58:25;;;;;;;53.90;21.75;;;7.40;99.90;;;;;;5013966;28;20046;-85
2022/12/25 06:00:58;;;;;;;56.80;22.48;;;7.30;99.90;;;;;;4979837;28;20042;-86
2022/12/25 06:03:35;;;;;;;58.17;23.13;;;7.30;99.90;;;;;;4979432;28;20061;-88
2022/12/25 06:06:13;;;;;;;59.00;23.00;;;7.30;99.90;;;;;;4980682;28;20133;-87
2022/12/25 06:08:43;;;;;;;60.58;23.58;;;7.30;99.90;;;;;;4993940;28;20048;-87
2022/12/25 06:11:18;;;;;;;61.75;23.77;;;7.20;99.90;;;;;;5024925;28;20033;-86
2022/12/25 06:13:55;;;;;;;61.70;22.55;;;7.40;99.90;;;;;;4996105;28;20192;-87
2022/12/25 06:16:23;;;;;;;63.92;24.02;;;7.50;99.90;;;;;;5000530;28;20060;-86
2022/12/25 06:18:53;;;;;;;59.08;23.52;;;7.40;99.90;;;;;;5011687;28;20057;-86
2022/12/25 06:21:19;;;;;;;69.55;24.10;;;7.30;99.90;;;;;;4993766;28;20041;-88
2022/12/25 06:23:50;;;;;;;59.17;22.70;;;7.30;99.90;;;;;;5014551;28;20088;-88
2022/12/25 06:26:18;;;;;;;59.85;22.92;;;7.40;99.90;;;;;;4981012;28;20067;-86
2022/12/25 06:28:57;;;;;;;59.33;21.90;;;7.40;99.90;;;;;;4989415;28;20084;-86
2022/12/25 06:31:38;;;;;;;59.05;23.60;;;7.10;99.90;;;;;;5010831;28;20049;-86
2022/12/25 06:34:04;;;;;;;60.35;23.13;;;7.30;99.90;;;;;;4975317;28;20137;-88
2022/12/25 06:36:33;;;;;;;54.05;23.20;;;8.80;99.90;;;;;;4991686;28;20128;-88
2022/12/25 06:39:07;;;;;;;62.70;23.02;;;7.30;99.90;;;;;;4995023;28;20149;-87
2022/12/25 06:41:55;;;;;;;56.03;22.67;;;7.30;99.90;;;;;;4998813;28;20049;-89
2022/12/25 06:44:49;;;;;;;59.70;22.60;;;7.40;99.90;;;;;;4979065;28;20049;-88
2022/12/25 06:47:19;;;;;;;55.08;21.90;;;8.10;99.90;;;;;;4990269;28;20078;-90
2022/12/25 06:49:48;;;;;;;56.25;22.67;;;7.30;99.90;;;;;;4990095;28;20975;-91
2022/12/25 06:52:27;;;;;;;;;;;;;;;;;;;;;
2022/12/25 06:54:55;;;;;;;56.65;22.02;;;7.40;99.90;;;;;;5012151;28;20050;-89
2022/12/25 06:57:40;;;;;;;62.00;23.92;;;7.20;99.90;;;;;;4999529;28;20164;-87
2022/12/25 07:00:26;;;;;;;55.45;23.40;;;7.30;99.90;;;;;;4983656;28;20053;-89
2022/12/25 07:02:57;;;;;;;51.13;22.00;;;7.40;99.90;;;;;;5006589;28;20496;-88
2022/12/25 07:05:46;;;;;;;;;;;;;;;;;;;;;
2022/12/25 07:08:30;;;;;;;55.70;22.80;;;7.40;99.90;;;;;;5012045;28;20058;-89
2022/12/25 07:11:06;;;;;;;64.45;24.73;;;7.50;99.90;;;;;;4998193;28;20128;-88
2022/12/25 07:14:04;;;;;;;;;;;;;;;;;;;;;
2022/12/25 07:17:01;;;;;;;64.60;24.23;;;6.70;99.90;;;;;;5003426;28;20061;-87
2022/12/25 07:20:03;;;;;;;;;;;;;;;;;;;;;
2022/12/25 07:22:41;;;;;;;66.72;25.08;;;7.50;99.90;;;;;;5003239;28;20054;-87
2022/12/25 07:25:21;;;;;;;63.35;24.08;;;7.60;99.90;;;;;;4991304;28;20052;-88
2022/12/25 07:31:26;;;;;;;58.50;24.30;;;9.10;99.90;;;;;;4973471;28;20136;-88
2022/12/25 07:34:02;;;;;;;61.20;25.05;;;7.80;99.90;;;;;;5009261;28;20100;-87
2022/12/25 07:36:53;;;;;;;59.85;23.85;;;7.70;99.90;;;;;;4985353;28;20140;-87
2022/12/25 07:39:25;;;;;;;61.03;25.05;;;7.70;99.90;;;;;;4992703;28;20042;-87
2022/12/25 07:41:56;;;;;;;58.72;25.40;;;7.80;99.90;;;;;;4995685;28;20125;-89
2022/12/25 07:44:33;;;;;;;61.25;23.88;;;7.70;99.90;;;;;;4983306;28;20115;-87
2022/12/25 07:47:11;;;;;;;54.50;23.35;;;7.70;99.90;;;;;;4999220;28;20135;-86
2022/12/25 07:53:02;;;;;;;54.17;22.05;;;7.00;99.90;;;;;;4993135;28;20049;-89
2022/12/25 07:55:43;;;;;;;49.65;22.58;;;7.70;99.90;;;;;;4995593;28;20528;-89
2022/12/25 07:58:28;;;;;;;;;;;;;;;;;;;;;
2022/12/25 08:01:31;;;;;;;45.97;22.52;;;7.10;99.90;;;;;;5015807;28;20071;-90
2022/12/25 08:04:10;;;;;;;48.13;21.33;;;8.70;99.90;;;;;;5010665;28;20053;-88
2022/12/25 08:06:44;;;;;;;46.53;20.00;;;7.70;99.90;;;;;;4979085;28;20053;-89
2022/12/25 08:09:27;;;;;;;45.28;20.02;;;8.80;99.90;;;;;;4975290;28;20046;-86
2022/12/25 08:11:58;;;;;;;44.42;19.45;;;7.80;99.90;;;;;;5011257;28;20128;-86
2022/12/25 08:14:36;;;;;;;42.22;19.25;;;7.70;99.90;;;;;;4983352;28;20045;-87
2022/12/25 08:17:02;;;;;;;46.17;19.45;;;7.80;99.90;;;;;;5000226;28;20490;-86
2022/12/25 08:19:28;;;;;;;35.30;17.75;;;7.70;99.90;;;;;;5003988;28;20046;-88
2022/12/25 08:22:04;;;;;;;37.78;17.02;;;7.60;99.90;;;;;;4981296;28;20046;-88
2022/12/25 08:24:37;;;;;;;38.40;18.27;;;7.90;99.90;;;;;;4985184;28;20049;-88
2022/12/25 08:27:15;;;;;;;43.15;17.63;;;7.20;99.90;;;;;;4982983;28;20484;-88
2022/12/25 08:29:48;;;;;;;44.13;17.90;;;7.90;99.90;;;;;;4968624;28;20502;-88
2022/12/25 08:32:18;;;;;;;35.30;16.33;;;7.90;99.90;;;;;;4975360;28;20120;-90
2022/12/25 08:34:50;;;;;;;38.75;16.65;;;7.90;99.90;;;;;;4979361;28;20048;-86
2022/12/25 08:37:31;;;;;;;38.70;16.65;;;7.90;99.90;;;;;;4997261;28;20384;-85
2022/12/25 08:40:13;;;;;;;35.25;16.73;;;8.50;99.90;;;;;;5003840;28;20042;-89
2022/12/25 08:42:56;;;;;;;42.90;16.17;;;7.80;99.90;;;;;;4993505;28;20515;-89
2022/12/25 08:45:22;;;;;;;34.63;15.80;;;7.90;99.90;;;;;;5017946;28;20410;-86
2022/12/25 08:48:03;;;;;;;34.63;15.77;;;7.90;99.90;;;;;;4996438;28;20047;-87
2022/12/25 08:50:29;;;;;;;30.63;14.60;;;7.90;99.90;;;;;;4999085;28;20087;-86
2022/12/25 08:52:59;;;;;;;30.45;14.23;;;8.10;99.90;;;;;;4994361;28;20054;-86
2022/12/25 08:55:31;;;;;;;33.50;14.20;;;7.90;99.90;;;;;;4994237;28;20097;-88
2022/12/25 08:58:02;;;;;;;35.60;15.23;;;7.90;99.90;;;;;;4997453;28;20066;-89
2022/12/25 09:00:31;;;;;;;28.30;14.15;;;8.00;99.90;;;;;;5020131;28;20050;-87
2022/12/25 09:03:00;;;;;;;29.98;14.50;;;8.00;99.90;;;;;;5008792;28;20057;-87
2022/12/25 09:05:39;;;;;;;31.08;14.23;;;7.90;99.90;;;;;;5002088;28;20054;-88
2022/12/25 09:08:20;;;;;;;29.77;14.07;;;7.90;99.90;;;;;;4990560;28;20085;-89
2022/12/25 09:10:59;;;;;;;27.85;12.85;;;7.90;99.90;;;;;;5020333;28;20053;-86
2022/12/25 09:13:35;;;;;;;26.15;13.18;;;7.90;99.90;;;;;;4999380;28;20513;-87
2022/12/25 09:16:23;;;;;;;;;;;;;;;;;;;;;
2022/12/25 09:18:51;;;;;;;29.75;13.82;;;7.00;99.90;;;;;;5014120;28;20064;-87
2022/12/25 09:21:58;;;;;;;31.63;14.55;;;7.90;99.90;;;;;;4990672;28;20042;-87
2022/12/25 09:24:32;;;;;;;35.80;14.73;;;7.90;99.90;;;;;;5010086;28;20061;-88
2022/12/25 09:27:14;;;;;;;39.15;15.98;;;7.90;99.90;;;;;;5006855;28;20191;-87
2022/12/25 09:29:40;;;;;;;37.13;16.42;;;7.90;99.90;;;;;;4983142;28;20053;-87
2022/12/25 09:32:25;;;;;;;41.92;17.17;;;7.90;99.90;;;;;;4999231;28;20105;-90
2022/12/25 09:34:56;;;;;;;42.10;17.50;;;7.90;99.90;;;;;;4999807;28;20101;-88
2022/12/25 09:37:42;;;;;;;40.60;16.85;;;8.00;99.90;;;;;;4965347;28;20092;-86
2022/12/25 09:40:25;;;;;;;45.72;17.05;;;7.90;99.90;;;;;;5008107;28;20121;-89
2022/12/25 09:43:15;;;;;;;41.95;17.05;;;8.00;99.90;;;;;;4979484;28;20049;-86
2022/12/25 09:46:04;;;;;;;38.88;17.02;;;8.00;99.90;;;;;;4988529;28;20564;-85
2022/12/25 09:48:46;;;;;;;39.08;16.95;;;8.00;99.90;;;;;;4995138;28;20552;-91
2022/12/25 09:51:15;;;;;;;42.92;17.63;;;8.40;99.90;;;;;;4995599;28;20041;-87
2022/12/25 09:54:45;;;;;;;41.38;16.73;;;7.00;99.90;;;;;;4999793;28;20061;-87
2022/12/25 09:57:15;;;;;;;35.15;16.50;;;7.90;99.90;;;;;;4953772;28;20057;-86
2022/12/25 09:59:46;;;;;;;45.50;18.02;;;8.00;99.90;;;;;;4996793;28;20057;-86
2022/12/25 10:02:37;;;;;;;42.45;16.92;;;8.00;99.90;;;;;;4974182;28;20100;-85
2022/12/25 10:05:25;;;;;;;42.15;17.20;;;8.00;99.90;;;;;;5013119;28;20057;-86
2022/12/25 10:08:18;;;;;;;39.17;16.77;;;8.00;99.90;;;;;;4984243;28;20061;-88
2022/12/25 10:11:34;;;;;;;;;;;;;;;;;;;;;
2022/12/25 10:14:28;;;;;;;;;;;;;;;;;;;;;
2022/12/25 10:17:28;;;;;;;40.80;16.05;;;8.00;99.90;;;;;;5014260;28;20379;-86
2022/12/25 10:20:33;;;;;;;36.83;14.88;;;8.20;99.90;;;;;;4999770;28;20065;-87
2022/12/25 10:23:23;;;;;;;;;;;;;;;;;;;;;
2022/12/25 10:26:08;;;;;;;;;;;;;;;;;;;;;
2022/12/25 10:29:03;;;;;;;37.30;13.98;;;7.90;99.90;;;;;;5016513;28;20041;-88
2022/12/25 10:31:46;;;;;;;33.35;14.48;;;8.10;99.90;;;;;;4994441;28;20057;-85
2022/12/25 10:34:18;;;;;;;35.70;14.40;;;8.10;99.90;;;;;;4999396;28;20620;-86
2022/12/25 10:36:48;;;;;;;28.30;13.18;;;7.60;99.90;;;;;;4995937;28;20128;-88
2022/12/25 10:39:22;;;;;;;29.92;13.45;;;8.20;99.90;;;;;;4992229;28;20057;-89
2022/12/25 10:42:11;;;;;;;25.52;13.05;;;8.10;99.90;;;;;;4997824;28;20046;-89
2022/12/25 10:45:02;;;;;;;29.73;13.27;;;8.20;99.90;;;;;;4992251;28;20051;-87
2022/12/25 10:47:39;;;;;;;28.48;13.02;;;8.20;99.90;;;;;;4980432;28;20046;-86
2022/12/25 10:50:27;;;;;;;30.85;12.90;;;8.30;99.90;;;;;;4998345;28;20112;-88
2022/12/25 10:53:23;;;;;;;32.28;14.10;;;9.00;99.90;;;;;;5011921;28;20049;-88
2022/12/25 10:56:18;;;;;;;32.75;14.60;;;8.20;99.90;;;;;;4997328;28;20054;-87
2022/12/25 10:58:44;;;;;;;37.72;14.85;;;7.20;99.90;;;;;;4973050;28;20062;-87
2022/12/25 11:01:16;;;;;;;35.33;14.35;;;8.20;99.90;;;;;;4975826;28;20499;-84
2022/12/25 11:03:51;;;;;;;30.75;14.02;;;8.30;99.90;;;;;;4996094;28;20060;-86
2022/12/25 11:06:27;;;;;;;37.50;15.63;;;8.40;99.90;;;;;;4989852;28;20048;-87
2022/12/25 11:09:05;;;;;;;34.80;14.73;;;8.30;99.90;;;;;;4995684;28;20091;-86
2022/12/25 11:11:41;;;;;;;32.97;13.77;;;8.30;99.90;;;;;;5011721;28;20115;-87
2022/12/25 11:14:30;;;;;;;;;;;8.30;99.90;;;;;;4997355;28;20537;-87
2022/12/25 11:17:47;;;;;;;32.90;13.82;;;8.40;99.90;;;;;;4996523;28;19925;-87
2022/12/25 11:20:41;;;;;;;29.88;13.45;;;8.10;99.90;;;;;;5006975;28;20469;-88
2022/12/25 11:23:51;;;;;;;32.92;12.40;;;8.40;99.90;;;;;;5002082;28;20102;-86
2022/12/25 11:26:41;;;;;;;;;;;;;;;;;;;;;
2022/12/25 11:29:50;;;;;;;35.50;14.15;;;8.40;99.90;;;;;;5015244;28;20060;-86
2022/12/25 11:32:54;;;;;;;29.27;13.13;;;8.40;99.90;;;;;;5009660;28;20399;-88
2022/12/25 11:35:29;;;;;;;30.60;12.88;;;8.40;99.90;;;;;;4998138;28;20050;-86
2022/12/25 11:38:41;;;;;;;33.35;14.20;;;7.70;99.90;;;;;;4996162;28;20059;-89
2022/12/25 11:41:42;;;;;;;32.15;13.77;;;8.40;99.90;;;;;;4998989;28;20061;-86
2022/12/25 11:44:36;;;;;;;;;;;;;;;;;;;;;
2022/12/25 11:47:49;;;;;;;32.78;13.77;;;7.40;99.90;;;;;;5019279;28;20107;-87
2022/12/25 11:51:24;;;;;;;32.72;14.23;;;8.50;99.90;;;;;;4985802;28;20050;-86
2022/12/25 11:54:07;;;;;;;33.25;13.80;;;8.70;99.90;;;;;;4958155;28;20260;-87
2022/12/25 11:56:55;;;;;;;;;;;;;;;;;;;;;
2022/12/25 11:59:46;;;;;;;32.03;13.27;;;8.60;99.90;;;;;;5015595;28;20065;-86
2022/12/25 12:02:51;;;;;;;32.20;13.18;;;8.60;99.90;;;;;;5003031;28;20057;-87
2022/12/25 12:05:52;;;;;;;26.35;11.73;;;8.60;99.90;;;;;;4994551;28;20053;-86
2022/12/25 12:08:23;;;;;;;24.13;11.40;;;8.60;99.90;;;;;;4992549;28;20057;-85
2022/12/25 12:11:41;;;;;;;25.60;12.15;;;8.60;99.90;;;;;;5016089;28;20053;-86
2022/12/25 12:14:41;;;;;;;25.13;12.23;;;8.60;99.90;;;;;;5011375;28;20103;-88
2022/12/25 12:17:16;;;;;;;24.25;11.15;;;8.80;99.90;;;;;;5001387;28;20399;-86
2022/12/25 12:20:04;;;;;;;21.67;11.10;;;8.60;99.90;;;;;;5001461;28;20058;-87
2022/12/25 12:23:07;;;;;;;25.67;11.40;;;8.70;99.90;;;;;;4995820;28;20120;-90
2022/12/25 12:26:10;;;;;;;;;;;;;;;;;;;;;
2022/12/25 12:29:01;;;;;;;20.73;10.57;;;8.50;99.90;;;;;;5012933;28;20053;-86
2022/12/25 12:32:04;;;;;;;20.92;9.93;;;8.60;99.90;;;;;;5005167;28;20515;-86
2022/12/25 12:34:48;;;;;;;24.58;9.88;;;8.70;99.90;;;;;;5001481;28;20124;-90
2022/12/25 12:37:45;;;;;;;23.02;9.52;;;8.70;99.90;;;;;;5021225;28;20073;-86
2022/12/25 12:40:29;;;;;;;;;;;8.00;99.90;;;;;;4998641;28;20042;-86
2022/12/25 12:43:24;;;;;;;19.05;10.07;;;8.70;99.90;;;;;;5021343;28;20011;-86
2022/12/25 12:46:23;;;;;;;18.80;9.75;;;8.70;99.90;;;;;;4996318;28;20489;-86
2022/12/25 12:48:54;;;;;;;17.58;9.23;;;10.00;99.90;;;;;;4994246;28;20046;-89
2022/12/25 12:51:29;;;;;;;22.23;10.80;;;9.30;99.90;;;;;;5023595;28;20058;-86
2022/12/25 12:54:42;;;;;;;20.33;11.35;;;7.80;99.90;;;;;;5003582;28;20151;-84
2022/12/25 12:57:33;;;;;;;;;;;;;;;;;;;;;
2022/12/25 13:00:19;;;;;;;18.83;10.65;;;8.70;99.90;;;;;;5019154;28;20046;-88
2022/12/25 13:03:24;;;;;;;21.60;10.73;;;8.70;99.90;;;;;;5000856;28;20198;-86
2022/12/25 13:06:14;;;;;;;19.35;10.07;;;8.70;99.90;;;;;;4998352;28;20527;-88
2022/12/25 13:09:08;;;;;;;20.92;10.38;;;8.70;99.90;;;;;;4995013;28;20050;-87
2022/12/25 13:11:46;;;;;;;18.90;10.15;;;8.70;99.90;;;;;;5017296;28;20041;-88
2022/12/25 13:17:21;;;;;;;18.13;10.35;;;9.00;99.90;;;;;;4989388;28;20139;-86
2022/12/25 13:19:59;;;;;;;24.52;10.52;;;8.60;99.90;;;;;;5001206;28;20113;-85
2022/12/25 13:22:33;;;;;;;16.70;9.77;;;8.80;99.90;;;;;;4994851;28;20072;-86
2022/12/25 13:25:20;;;;;;;17.77;9.30;;;8.60;99.90;;;;;;5014256;28;20076;-87
2022/12/25 13:27:54;;;;;;;15.80;9.23;;;9.10;99.90;;;;;;5001021;28;20076;-86
2022/12/25 13:30:29;;;;;;;15.45;9.93;;;8.80;99.90;;;;;;5010889;28;20074;-84
2022/12/25 13:33:00;;;;;;;17.77;9.65;;;8.70;99.90;;;;;;5017456;28;20049;-89
2022/12/25 13:35:26;;;;;;;14.02;10.07;;;9.40;99.90;;;;;;4996589;28;20084;-87
2022/12/25 13:38:00;;;;;;;20.45;10.30;;;9.20;99.90;;;;;;4998749;28;20058;-87
2022/12/25 13:42:04;;;;;;;17.48;10.25;;;8.60;99.90;;;;;;4996549;28;20038;-88
2022/12/25 13:44:15;;;;;;;19.27;11.10;;;8.60;99.90;;;;;;5013931;28;20058;-88
2022/12/25 13:46:53;;;;;;;18.73;10.13;;;8.60;99.90;;;;;;4980970;28;20487;-84
2022/12/25 13:49:23;;;;;;;19.70;10.30;;;8.70;99.90;;;;;;5000982;28;20046;-85
2022/12/25 13:52:08;;;;;;;18.08;10.60;;;8.60;99.90;;;;;;5007728;28;20054;-86
2022/12/25 13:54:42;;;;;;;21.02;11.85;;;8.70;99.90;;;;;;5012096;28;20136;-84
2022/12/25 13:57:18;;;;;;;20.48;10.82;;;8.60;99.90;;;;;;4985934;28;20137;-83
2022/12/25 13:59:54;;;;;;;;;;;8.60;99.90;;;;;;4997857;28;20124;-85
2022/12/25 14:05:31;;;;;;;20.30;10.25;;;8.60;99.90;;;;;;4996502;28;20176;-87
2022/12/25 14:08:03;;;;;;;22.65;10.45;;;8.50;99.90;;;;;;5011611;28;20185;-85
2022/12/25 14:10:37;;;;;;;20.55;11.55;;;8.50;99.90;;;;;;4980388;28;20081;-84
2022/12/25 14:13:08;;;;;;;17.23;10.52;;;8.60;99.90;;;;;;4995491;28;20246;-85
2022/12/25 14:15:51;;;;;;;22.42;10.80;;;8.60;99.90;;;;;;5012346;28;20049;-84
2022/12/25 14:18:25;;;;;;;18.88;11.63;;;8.60;99.90;;;;;;4996877;28;20050;-84
2022/12/25 14:21:23;;;;;;;19.85;11.10;;;8.60;99.90;;;;;;4979323;28;20073;-86
2022/12/25 14:24:09;;;;;;;17.40;10.30;;;8.10;99.90;;;;;;5014915;28;20372;-85
2022/12/25 14:27:00;;;;;;;17.13;10.07;;;8.50;99.90;;;;;;5001985;28;20046;-86
2022/12/25 14:29:50;;;;;;;18.85;10.70;;;8.50;99.90;;;;;;4994920;28;20392;-86
2022/12/25 14:32:42;;;;;;;17.65;10.05;;;8.50;99.90;;;;;;4995941;28;20475;-85
2022/12/25 14:35:31;;;;;;;18.30;10.40;;;8.50;99.90;;;;;;4987481;28;20495;-85
2022/12/25 14:38:03;;;;;;;18.05;10.27;;;8.50;99.90;;;;;;5010917;28;20478;-88
2022/12/25 14:40:44;;;;;;;17.73;9.80;;;9.00;99.90;;;;;;5002499;28;20388;-88
2022/12/25 14:43:33;;;;;;;16.60;9.80;;;8.50;99.90;;;;;;5012790;28;20141;-84
2022/12/25 14:52:26;;;;;;;17.00;9.57;;;8.50;99.90;;;;;;5012190;28;20490;-85
2022/12/25 14:55:14;;;;;;;;;;;;;;;;;;;;;
2022/12/25 14:58:03;;;;;;;18.38;10.73;;;7.50;99.90;;;;;;5009684;28;20129;-87
2022/12/25 15:00:50;;;;;;;;;;;;;;;;;;;;;
2022/12/25 15:03:28;;;;;;;20.13;10.73;;;8.50;99.90;;;;;;5009510;28;20491;-87
2022/12/25 15:06:07;;;;;;;16.63;9.73;;;8.40;99.90;;;;;;4999315;28;20137;-87
2022/12/25 15:08:41;;;;;;;16.35;10.45;;;8.50;99.90;;;;;;4995726;28;21079;-87
2022/12/25 15:11:44;;;;;;;21.23;9.90;;;8.40;99.90;;;;;;5014125;28;20125;-85
2022/12/25 15:14:20;;;;;;;16.55;9.95;;;8.20;99.90;;;;;;5008076;28;20046;-86
2022/12/25 15:17:08;;;;;;;;;;;8.20;99.90;;;;;;4997906;28;20061;-87
2022/12/25 15:19:40;;;;;;;17.45;9.80;;;9.20;99.90;;;;;;4997650;28;19925;-85
2022/12/25 15:22:57;;;;;;;19.50;12.30;;;8.10;99.90;;;;;;5011761;28;20049;-87
2022/12/25 15:25:37;;;;;;;34.22;21.48;;;8.20;99.90;;;;;;4979286;28;20384;-85
2022/12/25 15:28:40;;;;;;;27.30;18.45;;;8.10;99.90;;;;;;4997261;28;20807;-85
2022/12/25 15:31:24;;;;;;;24.10;14.40;;;8.20;99.90;;;;;;5025621;28;20160;-84
2022/12/25 15:34:02;;;;;;;15.98;10.93;;;8.00;99.90;;;;;;5009323;28;20080;-86
2022/12/25 15:36:38;;;;;;;15.85;11.00;;;8.00;99.90;;;;;;4995902;28;20045;-84
2022/12/25 15:39:34;;;;;;;;;;;;;;;;;;;;;
2022/12/25 15:42:20;;;;;;;18.13;11.30;;;8.00;99.90;;;;;;5007950;28;20065;-86
2022/12/25 15:45:02;;;;;;;;;;;;;;;;;;;;;
2022/12/25 15:48:00;;;;;;;19.13;10.43;;;8.00;99.90;;;;;;5013323;28;19925;-85
2022/12/25 15:50:38;;;;;;;17.08;10.85;;;8.00;99.90;;;;;;4985683;28;20058;-85
2022/12/25 15:53:18;;;;;;;18.00;10.23;;;8.00;99.90;;;;;;5011216;28;20133;-89
2022/12/25 15:55:56;;;;;;;;;;;;;;;;;;;;;
2022/12/25 15:58:43;;;;;;;;;;;;;;;;;;;;;
2022/12/25 16:01:19;;;;;;;;;;;7.90;99.90;;;;;;5019866;28;20062;-86
2022/12/25 16:04:01;;;;;;;16.90;10.48;;;8.00;99.90;;;;;;4997993;28;20272;-85
2022/12/25 16:06:55;;;;;;;;;;;;;;;;;;;;;
2022/12/25 16:09:29;;;;;;;20.02;13.07;;;8.00;99.90;;;;;;5014955;28;20050;-86
2022/12/25 16:12:03;;;;;;;22.48;13.05;;;7.90;99.90;;;;;;5006750;28;20054;-85
2022/12/25 16:14:37;;;;;;;20.70;12.88;;;9.20;99.90;;;;;;4995713;28;20046;-85
2022/12/25 16:17:12;;;;;;;20.23;11.90;;;7.90;99.90;;;;;;4996264;28;20044;-84
2022/12/25 16:19:48;;;;;;;18.85;11.38;;;7.90;99.90;;;;;;4989621;28;20053;-85
2022/12/25 16:22:38;;;;;;;;;;;;;;;;;;;;;
2022/12/25 16:25:26;;;;;;;21.80;12.85;;;7.90;99.90;;;;;;4995194;28;20057;-86
2022/12/25 16:28:04;;;;;;;19.95;11.85;;;7.90;99.90;;;;;;5009780;28;20218;-86
2022/12/25 16:30:48;;;;;;;23.05;12.15;;;8.00;99.90;;;;;;4998169;28;20041;-84
2022/12/25 16:33:26;;;;;;;;;;;;;;;;;;;;;
2022/12/25 16:36:09;;;;;;;55.53;32.00;;;;;;;;;;5000541;28;20061;-87